createdAt,value
2022-12-23T00:01:50.778Z,3.14
2022-12-23T00:04:17.738Z,3.15
2022-12-23T00:06:44.448Z,3.18
2022-12-23T00:09:11.098Z,3.18
2022-12-23T00:11:37.754Z,3.17
2022-12-23T00:14:04.405Z,3.20
2022-12-23T00:16:31.348Z,3.20
2022-12-23T00:18:58.034Z,3.18
2022-12-23T00:21:24.702Z,3.20
2022-12-23T00:23:51.352Z,3.20
2022-12-23T00:26:18.010Z,3.18
2022-12-23T00:28:44.664Z,3.18
2022-12-23T00:31:11.388Z,3.20
2022-12-23T00:33:38.092Z,3.22
2022-12-23T00:36:04.774Z,3.20
2022-12-23T00:38:31.451Z,3.20
2022-12-23T00:40:58.103Z,3.21
2022-12-23T00:43:24.747Z,3.20
2022-12-23T00:45:51.440Z,3.22
2022-12-23T00:48:18.158Z,3.22
2022-12-23T00:50:44.813Z,3.21
2022-12-23T00:53:11.456Z,3.20
2022-12-23T00:55:38.103Z,3.22
2022-12-23T00:58:04.754Z,3.24
2022-12-23T01:00:31.474Z,3.24
2022-12-23T01:02:58.261Z,3.24
2022-12-23T01:05:24.997Z,3.24
2022-12-23T01:07:51.650Z,3.24
2022-12-23T01:10:18.316Z,3.24
2022-12-23T01:12:45.194Z,3.24
2022-12-23T01:15:12.052Z,3.24
2022-12-23T01:17:41.737Z,3.24
2022-12-23T01:20:08.385Z,3.24
2022-12-23T01:22:35.033Z,3.27
2022-12-23T01:25:01.684Z,3.28
2022-12-23T01:27:28.345Z,3.27
2022-12-23T01:29:54.995Z,3.28
2022-12-23T01:32:21.866Z,3.28
2022-12-23T01:34:48.748Z,3.27
2022-12-23T01:37:15.606Z,3.28
2022-12-23T01:39:42.264Z,3.28
2022-12-23T01:42:08.953Z,3.27
2022-12-23T01:44:35.599Z,3.27
2022-12-23T01:47:02.645Z,3.27
2022-12-23T01:49:29.513Z,3.30
2022-12-23T01:51:56.367Z,3.28
2022-12-23T01:54:23.016Z,3.25
2022-12-23T01:56:49.679Z,3.30
2022-12-23T01:59:16.337Z,3.31
2022-12-23T02:01:43.135Z,3.30
2022-12-23T02:04:09.894Z,3.30
2022-12-23T02:06:36.562Z,3.25
2022-12-23T02:09:03.202Z,3.28
2022-12-23T02:11:30.064Z,3.31
2022-12-23T02:13:56.733Z,3.30
2022-12-23T02:16:23.432Z,3.32
2022-12-23T02:19:09.005Z,3.34
2022-12-23T02:21:35.658Z,3.30
2022-12-23T02:24:02.500Z,3.34
2022-12-23T02:26:29.396Z,3.32
2022-12-23T02:28:56.044Z,3.31
2022-12-23T02:31:23.121Z,3.34
2022-12-23T02:33:49.799Z,3.34
2022-12-23T02:36:16.445Z,3.34
2022-12-23T02:38:43.119Z,3.32
2022-12-23T02:41:09.771Z,3.32
2022-12-23T02:43:36.439Z,3.32
2022-12-23T02:46:03.114Z,3.34
2022-12-23T02:48:29.809Z,3.38
2022-12-23T02:50:56.463Z,3.34
2022-12-23T02:53:23.364Z,3.35
2022-12-23T02:55:50.058Z,3.35
2022-12-23T02:58:16.719Z,3.35
2022-12-23T03:00:43.386Z,3.36
2022-12-23T03:03:10.141Z,3.38
2022-12-23T03:05:36.892Z,3.35
2022-12-23T03:08:03.566Z,3.35
2022-12-23T03:10:30.213Z,3.38
2022-12-23T03:12:56.863Z,3.36
2022-12-23T03:15:23.510Z,3.38
2022-12-23T03:17:50.170Z,3.36
2022-12-23T03:20:16.857Z,3.36
2022-12-23T03:22:43.544Z,3.38
2022-12-23T03:25:10.212Z,3.39
2022-12-23T03:27:36.868Z,3.39
2022-12-23T03:30:03.718Z,3.36
2022-12-23T03:32:30.374Z,3.39
2022-12-23T03:34:57.064Z,3.38
2022-12-23T03:37:23.751Z,3.41
2022-12-23T03:39:50.436Z,3.38
2022-12-23T03:42:17.081Z,3.39
2022-12-23T03:45:03.763Z,3.41
2022-12-23T03:47:30.358Z,3.41
2022-12-23T03:49:57.014Z,3.41
2022-12-23T03:52:23.667Z,3.42
2022-12-23T03:54:50.330Z,3.39
2022-12-23T03:57:17.010Z,3.38
2022-12-23T03:59:43.688Z,3.41
2022-12-23T04:02:10.464Z,3.39
2022-12-23T04:04:37.410Z,3.39
2022-12-23T04:07:04.103Z,3.42
2022-12-23T04:09:30.982Z,3.42
2022-12-23T04:11:57.630Z,3.42
2022-12-23T04:14:24.494Z,3.42
2022-12-23T04:16:51.170Z,3.42
2022-12-23T04:19:17.822Z,3.42
2022-12-23T04:21:44.501Z,3.42
2022-12-23T04:24:11.207Z,3.45
2022-12-23T04:26:37.887Z,3.45
2022-12-23T04:29:04.581Z,3.45
2022-12-23T04:31:31.337Z,3.42
2022-12-23T04:33:58.241Z,3.46
2022-12-23T04:36:24.923Z,3.44
2022-12-23T04:38:51.791Z,3.44
2022-12-23T04:41:18.463Z,3.44
2022-12-23T04:43:49.238Z,3.42
2022-12-23T04:46:19.422Z,3.44
2022-12-23T04:48:46.115Z,3.45
2022-12-23T04:51:12.772Z,3.46
2022-12-23T04:53:39.435Z,3.45
2022-12-23T04:56:06.301Z,3.48
2022-12-23T04:58:32.956Z,3.46
2022-12-23T05:00:59.652Z,3.45
2022-12-23T05:03:26.430Z,3.48
2022-12-23T05:05:53.124Z,3.48
2022-12-23T05:08:19.808Z,3.48
2022-12-23T05:10:46.715Z,3.48
2022-12-23T05:13:13.367Z,3.50
2022-12-23T05:15:40.017Z,3.51
2022-12-23T05:18:06.671Z,3.48
2022-12-23T05:20:33.333Z,3.51
2022-12-23T05:23:00.046Z,3.50
2022-12-23T05:25:26.716Z,3.48
2022-12-23T05:27:53.614Z,3.50
2022-12-23T05:30:20.277Z,3.50
2022-12-23T05:32:46.918Z,3.51
2022-12-23T05:35:13.585Z,3.51
2022-12-23T05:37:40.480Z,3.51
2022-12-23T05:40:07.128Z,3.50
2022-12-23T05:42:34.167Z,3.51
2022-12-23T05:45:00.833Z,3.51
2022-12-23T05:47:27.745Z,3.51
2022-12-23T05:49:54.420Z,3.52
2022-12-23T05:52:21.078Z,3.52
2022-12-23T05:54:47.749Z,3.54
2022-12-23T05:57:14.424Z,3.54
2022-12-23T05:59:41.075Z,3.54
2022-12-23T06:02:07.851Z,3.52
2022-12-23T06:04:34.672Z,3.54
2022-12-23T06:07:01.358Z,3.54
2022-12-23T06:09:28.233Z,3.56
2022-12-23T06:11:54.909Z,3.56
2022-12-23T06:14:28.335Z,3.55
2022-12-23T06:16:55.660Z,3.55
2022-12-23T06:19:22.419Z,3.55
2022-12-23T06:21:49.107Z,3.55
2022-12-23T06:24:15.798Z,3.56
2022-12-23T06:26:42.447Z,3.56
2022-12-23T06:29:09.318Z,3.54
2022-12-23T06:31:36.011Z,3.59
2022-12-23T06:34:02.684Z,3.56
2022-12-23T06:36:29.356Z,3.58
2022-12-23T06:38:56.221Z,3.59
2022-12-23T06:41:22.870Z,3.59
2022-12-23T06:43:54.048Z,3.59
2022-12-23T06:46:21.177Z,3.59
2022-12-23T06:48:48.079Z,3.59
2022-12-23T06:51:14.781Z,3.59
2022-12-23T06:53:41.453Z,3.59
2022-12-23T06:56:08.331Z,3.59
2022-12-23T06:58:35.001Z,3.61
2022-12-23T07:01:02.218Z,3.61
2022-12-23T07:03:28.989Z,3.59
2022-12-23T07:05:55.932Z,3.61
2022-12-23T07:08:22.602Z,3.62
2022-12-23T07:10:49.479Z,3.62
2022-12-23T07:13:16.160Z,3.62
2022-12-23T07:15:43.023Z,3.62
2022-12-23T07:18:09.720Z,3.62
2022-12-23T07:20:36.396Z,3.62
2022-12-23T07:23:03.100Z,3.62
2022-12-23T07:25:29.995Z,3.62
2022-12-23T07:27:56.678Z,3.63
2022-12-23T07:30:23.574Z,3.63
2022-12-23T07:32:50.241Z,3.63
2022-12-23T07:35:17.108Z,3.63
2022-12-23T07:37:43.767Z,3.63
2022-12-23T07:40:10.435Z,3.65
2022-12-23T07:42:46.447Z,3.65
2022-12-23T07:45:13.436Z,3.68
2022-12-23T07:47:40.348Z,3.66
2022-12-23T07:50:07.213Z,3.66
2022-12-23T07:52:33.868Z,3.66
2022-12-23T07:55:00.558Z,3.68
2022-12-23T07:57:27.255Z,3.68
2022-12-23T07:59:53.913Z,3.68
2022-12-23T08:02:20.731Z,3.68
2022-12-23T08:04:47.568Z,3.69
2022-12-23T08:07:14.295Z,3.69
2022-12-23T08:09:41.288Z,3.69
2022-12-23T08:12:08.154Z,3.69
2022-12-23T08:14:34.817Z,3.71
2022-12-23T08:17:02.636Z,3.69
2022-12-23T08:19:29.354Z,3.71
2022-12-23T08:21:56.050Z,3.72
2022-12-23T08:24:22.707Z,3.71
2022-12-23T08:26:49.562Z,3.73
2022-12-23T08:29:16.230Z,3.73
2022-12-23T08:31:42.893Z,3.75
2022-12-23T08:34:10.485Z,3.73
2022-12-23T08:36:37.223Z,3.73
2022-12-23T08:39:03.899Z,3.73
2022-12-23T08:41:30.555Z,3.73
2022-12-23T08:43:57.257Z,3.75
2022-12-23T08:46:23.979Z,3.75
2022-12-23T08:48:50.708Z,3.73
2022-12-23T08:51:17.378Z,3.75
2022-12-23T08:53:44.211Z,3.76
2022-12-23T08:56:10.872Z,3.81
2022-12-23T08:58:37.795Z,3.79
2022-12-23T09:01:04.528Z,3.78
2022-12-23T09:03:31.551Z,3.76
2022-12-23T09:05:58.332Z,3.79
2022-12-23T09:08:24.991Z,3.76
2022-12-23T09:13:36.198Z,3.78
2022-12-23T09:16:02.933Z,3.79
2022-12-23T09:18:29.838Z,3.79
2022-12-23T09:20:56.514Z,3.82
2022-12-23T09:23:23.192Z,3.79
2022-12-23T09:25:49.884Z,3.83
2022-12-23T09:28:16.568Z,3.83
2022-12-23T09:30:43.348Z,3.79
2022-12-23T09:33:10.078Z,3.82
2022-12-23T09:35:36.755Z,3.81
2022-12-23T09:38:03.623Z,3.82
2022-12-23T09:40:30.279Z,3.82
2022-12-23T09:42:56.961Z,3.82
2022-12-23T09:45:23.650Z,3.83
2022-12-23T09:47:50.322Z,3.85
2022-12-23T09:50:16.988Z,3.86
2022-12-23T09:52:43.858Z,3.86
2022-12-23T09:55:10.525Z,3.87
2022-12-23T09:57:37.218Z,3.86
2022-12-23T10:00:03.900Z,3.86
2022-12-23T10:02:31.007Z,3.85
2022-12-23T10:04:57.888Z,3.87
2022-12-23T10:07:25.327Z,3.90
2022-12-23T10:09:52.012Z,3.86
2022-12-23T10:12:23.595Z,3.89
2022-12-23T10:14:54.000Z,3.87
2022-12-23T10:17:20.684Z,3.87
2022-12-23T10:19:47.379Z,3.89
2022-12-23T10:22:14.077Z,3.89
2022-12-23T10:24:40.772Z,3.87
2022-12-23T10:27:07.464Z,3.92
2022-12-23T10:29:34.174Z,3.92
2022-12-23T10:32:01.905Z,3.90
2022-12-23T10:34:33.426Z,3.92
2022-12-23T10:37:03.412Z,3.90
2022-12-23T10:39:30.867Z,3.92
2022-12-23T10:41:57.547Z,3.92
2022-12-23T10:44:24.861Z,3.94
2022-12-23T10:46:51.596Z,3.94
2022-12-23T10:49:18.268Z,3.94
2022-12-23T10:51:44.950Z,3.96
2022-12-23T10:54:11.605Z,3.96
2022-12-23T10:56:38.269Z,3.96
2022-12-23T10:59:04.929Z,3.96
2022-12-23T11:01:31.759Z,3.94
2022-12-23T11:03:58.507Z,3.96
2022-12-23T11:06:25.188Z,3.96
2022-12-23T11:08:51.846Z,3.94
2022-12-23T11:11:19.157Z,3.96
2022-12-23T11:13:45.841Z,3.96
2022-12-23T11:16:12.573Z,3.97
2022-12-23T11:18:42.167Z,3.97
2022-12-23T11:21:09.001Z,3.97
2022-12-23T11:23:35.662Z,3.96
2022-12-23T11:26:03.352Z,3.96
2022-12-23T11:28:30.033Z,3.99
2022-12-23T11:30:57.237Z,4.00
2022-12-23T11:33:23.982Z,3.97
2022-12-23T11:35:50.672Z,3.99
2022-12-23T11:38:17.428Z,3.97
2022-12-23T11:40:44.092Z,4.00
2022-12-23T11:43:10.739Z,3.99
2022-12-23T11:45:37.417Z,3.99
2022-12-23T11:48:04.127Z,3.96
2022-12-23T11:50:30.807Z,4.00
2022-12-23T11:52:57.459Z,3.97
2022-12-23T11:55:24.100Z,4.00
2022-12-23T11:57:50.749Z,4.00
2022-12-23T12:00:17.412Z,4.02
2022-12-23T12:02:44.138Z,4.03
2022-12-23T12:05:10.919Z,4.00
2022-12-23T12:07:37.578Z,4.00
2022-12-23T12:10:04.347Z,4.02
2022-12-23T12:12:31.043Z,4.04
2022-12-23T12:14:57.701Z,4.00
2022-12-23T12:17:24.346Z,4.02
2022-12-23T12:19:51.003Z,4.04
2022-12-23T12:22:17.673Z,4.04
2022-12-23T12:24:44.385Z,4.04
2022-12-23T12:27:11.040Z,4.04
2022-12-23T12:29:37.700Z,4.04
2022-12-23T12:32:04.395Z,4.06
2022-12-23T12:34:31.098Z,4.04
2022-12-23T12:36:57.821Z,4.06
2022-12-23T12:39:24.523Z,4.04
2022-12-23T12:41:51.205Z,4.07
2022-12-23T12:44:17.862Z,4.07
2022-12-23T12:46:44.558Z,4.07
2022-12-23T12:49:11.221Z,4.07
2022-12-23T12:51:37.895Z,4.09
2022-12-23T12:54:06.005Z,4.09
2022-12-23T12:56:33.049Z,4.09
2022-12-23T12:58:59.710Z,4.09
2022-12-23T13:01:26.507Z,4.09
2022-12-23T13:03:53.215Z,4.10
2022-12-23T13:06:19.896Z,4.09
2022-12-23T13:08:46.554Z,4.09
2022-12-23T13:11:13.214Z,4.10
2022-12-23T13:13:39.893Z,4.09
2022-12-23T13:16:06.572Z,4.13
2022-12-23T13:18:33.236Z,4.11
2022-12-23T13:20:59.922Z,4.11
2022-12-23T13:23:44.106Z,4.11
2022-12-23T13:26:11.240Z,4.09
2022-12-23T13:28:37.894Z,4.11
2022-12-23T13:31:04.670Z,4.11
2022-12-23T13:33:31.360Z,4.10
2022-12-23T13:36:05.074Z,4.11
2022-12-23T13:38:32.628Z,4.14
2022-12-23T13:40:59.338Z,4.13
2022-12-23T13:43:26.045Z,4.13
2022-12-23T13:45:52.776Z,4.11
2022-12-23T13:48:19.473Z,4.13
2022-12-23T13:50:46.127Z,4.13
2022-12-23T13:53:13.003Z,4.13
2022-12-23T13:55:39.678Z,4.13
2022-12-23T13:58:06.331Z,4.20
2022-12-23T14:03:34.651Z,4.82
2022-12-23T14:06:01.549Z,4.93
2022-12-23T14:08:28.233Z,5.18
2022-12-23T14:10:54.916Z,5.35
2022-12-23T14:13:21.701Z,5.47
2022-12-23T14:15:48.654Z,5.40
2022-12-23T14:18:15.389Z,5.43
2022-12-23T14:20:42.056Z,5.57
2022-12-23T14:23:08.729Z,5.61
2022-12-23T14:25:35.406Z,5.60
2022-12-23T14:28:02.297Z,5.51
2022-12-23T14:30:28.981Z,5.53
2022-12-23T14:32:55.666Z,5.50
2022-12-23T14:35:22.325Z,5.67
2022-12-23T14:37:48.995Z,5.81
2022-12-23T14:40:15.686Z,5.87
2022-12-23T14:42:42.365Z,5.93
2022-12-23T14:45:09.049Z,5.93
2022-12-23T14:47:35.758Z,5.97
2022-12-23T14:50:02.437Z,5.95
2022-12-23T14:52:29.118Z,5.99
2022-12-23T14:55:28.520Z,6.09
2022-12-23T14:57:42.483Z,6.07
2022-12-23T15:00:09.164Z,6.17
2022-12-23T15:02:35.938Z,6.15
2022-12-23T15:05:02.652Z,6.21
2022-12-23T15:07:29.323Z,6.25
2022-12-23T15:10:00.678Z,6.32
2022-12-23T15:12:28.138Z,6.45
2022-12-23T15:14:54.805Z,6.52
2022-12-23T15:17:21.460Z,6.50
2022-12-23T15:19:48.151Z,6.50
2022-12-23T15:22:23.730Z,6.75
2022-12-23T15:24:55.918Z,6.69
2022-12-23T15:27:27.873Z,6.66
2022-12-23T15:29:55.136Z,6.68
2022-12-23T15:32:21.809Z,6.80
2022-12-23T15:34:48.490Z,6.89
2022-12-23T15:37:15.221Z,6.81
2022-12-23T15:39:41.904Z,6.89
2022-12-23T15:42:08.608Z,7.04
2022-12-23T15:44:35.302Z,7.00
2022-12-23T15:47:02.074Z,7.08
2022-12-23T15:49:28.779Z,7.14
2022-12-23T15:52:07.902Z,7.32
2022-12-23T15:54:36.320Z,7.38
2022-12-23T15:57:03.941Z,7.40
2022-12-23T15:59:30.639Z,7.47
2022-12-23T16:01:57.420Z,7.62
2022-12-23T16:04:24.171Z,7.71
2022-12-23T16:06:50.877Z,7.72
2022-12-23T16:09:17.574Z,7.85
2022-12-23T16:11:44.264Z,7.87
2022-12-23T16:14:10.938Z,7.99
2022-12-23T16:16:37.679Z,7.76
2022-12-23T16:19:04.337Z,8.00
2022-12-23T16:21:31.014Z,7.96
2022-12-23T16:23:57.715Z,8.17
2022-12-23T16:26:24.387Z,8.13
2022-12-23T16:28:51.067Z,8.07
2022-12-23T16:31:17.783Z,8.14
2022-12-23T16:33:44.503Z,8.13
2022-12-23T16:36:11.238Z,8.24
2022-12-23T16:38:37.982Z,8.23
2022-12-23T16:41:04.642Z,8.23
2022-12-23T16:43:31.339Z,8.17
2022-12-23T16:45:58.099Z,8.22
2022-12-23T16:48:24.824Z,8.22
2022-12-23T16:50:51.513Z,8.36
2022-12-23T16:53:18.249Z,8.36
2022-12-23T16:55:52.446Z,8.37
2022-12-23T16:58:23.436Z,8.48
2022-12-23T17:00:50.124Z,8.57
2022-12-23T17:03:16.883Z,8.57
2022-12-23T17:05:43.601Z,8.54
2022-12-23T17:08:10.287Z,8.57
2022-12-23T17:10:36.963Z,8.63
2022-12-23T17:13:03.735Z,8.65
2022-12-23T17:15:30.426Z,8.64
2022-12-23T17:17:57.733Z,8.71
2022-12-23T17:20:25.066Z,8.69
2022-12-23T17:22:51.756Z,8.72
2022-12-23T17:25:22.759Z,8.75
2022-12-23T17:27:51.354Z,8.81
2022-12-23T17:30:18.040Z,9.14
2022-12-23T17:32:44.731Z,9.14
2022-12-23T17:35:11.610Z,9.12
2022-12-23T17:37:38.285Z,9.22
2022-12-23T17:40:05.066Z,9.19
2022-12-23T17:42:31.765Z,9.09
2022-12-23T17:44:58.685Z,9.12
2022-12-23T17:47:25.378Z,9.29
2022-12-23T17:49:52.068Z,9.27
2022-12-23T17:52:19.531Z,9.33
2022-12-23T17:54:46.210Z,9.32
2022-12-23T17:57:12.888Z,9.35
2022-12-23T17:59:39.547Z,9.37
2022-12-23T18:02:06.242Z,9.48
2022-12-23T18:04:32.940Z,9.51
2022-12-23T18:06:59.594Z,9.54
2022-12-23T18:09:26.496Z,9.53
2022-12-23T18:11:53.177Z,9.56
2022-12-23T18:14:19.842Z,9.64
2022-12-23T18:16:46.605Z,9.78
2022-12-23T18:19:13.537Z,9.83
2022-12-23T18:21:40.221Z,9.84
2022-12-23T18:24:06.900Z,9.87
2022-12-23T18:26:33.587Z,9.94
2022-12-23T18:29:00.476Z,9.98
2022-12-23T18:31:27.303Z,9.95
2022-12-23T18:33:54.147Z,10.02
2022-12-23T18:36:21.073Z,10.07
2022-12-23T18:38:47.741Z,10.17
2022-12-23T18:41:14.426Z,10.28
2022-12-23T18:43:41.103Z,10.28
2022-12-23T18:46:07.798Z,10.34
2022-12-23T18:48:34.473Z,10.37
2022-12-23T18:51:01.166Z,10.38
2022-12-23T18:53:27.820Z,10.52
2022-12-23T18:55:54.914Z,10.69
2022-12-23T18:58:21.841Z,10.70
2022-12-23T19:00:48.552Z,10.76
2022-12-23T19:03:15.220Z,10.79
2022-12-23T19:05:41.907Z,10.83
2022-12-23T19:08:08.560Z,10.93
2022-12-23T19:10:35.228Z,11.00
2022-12-23T19:13:02.119Z,11.04
2022-12-23T19:15:28.833Z,11.07
2022-12-23T19:17:55.514Z,11.17
2022-12-23T19:20:22.197Z,11.23
2022-12-23T19:22:48.889Z,11.30
2022-12-23T19:25:15.545Z,11.37
2022-12-23T19:27:42.216Z,11.44
2022-12-23T19:30:08.905Z,11.47
2022-12-23T19:32:35.583Z,11.52
2022-12-23T19:35:02.499Z,11.59
2022-12-23T19:37:29.181Z,11.61
2022-12-23T19:39:56.086Z,11.65
2022-12-23T19:42:22.764Z,11.69
2022-12-23T19:44:49.435Z,11.78
2022-12-23T19:47:16.116Z,11.82
2022-12-23T19:49:45.728Z,11.96
2022-12-23T19:52:12.380Z,12.68
2022-12-23T19:54:39.036Z,12.46
2022-12-23T19:57:05.725Z,12.26
2022-12-23T19:59:32.380Z,12.20
2022-12-23T20:01:59.151Z,12.20
2022-12-23T20:04:25.903Z,12.22
2022-12-23T20:06:52.610Z,12.22
2022-12-23T20:09:19.291Z,12.30
2022-12-23T20:11:45.979Z,12.30
2022-12-23T20:14:12.692Z,12.36
2022-12-23T20:16:39.372Z,12.37
2022-12-23T20:19:06.042Z,12.44
2022-12-23T20:21:32.729Z,12.47
2022-12-23T20:23:59.432Z,12.44
2022-12-23T20:26:26.110Z,12.68
2022-12-23T20:28:52.994Z,12.92
2022-12-23T20:31:19.726Z,12.81
2022-12-23T20:33:46.426Z,12.76
2022-12-23T20:36:13.149Z,12.73
2022-12-23T20:38:40.071Z,12.74
2022-12-23T20:41:06.732Z,12.74
2022-12-23T20:43:33.595Z,12.74
2022-12-23T20:46:00.369Z,12.76
2022-12-23T20:48:33.496Z,12.79
2022-12-23T20:51:00.794Z,12.87
2022-12-23T20:53:27.445Z,12.88
2022-12-23T20:55:54.324Z,12.88
2022-12-23T20:58:21.015Z,12.92
2022-12-23T21:00:47.712Z,13.05
2022-12-23T21:03:14.475Z,13.05
2022-12-23T21:05:41.945Z,13.00
2022-12-23T21:08:08.629Z,13.10
2022-12-23T21:10:35.306Z,13.15
2022-12-23T21:13:01.965Z,13.14
2022-12-23T21:15:28.642Z,13.65
2022-12-23T21:17:55.547Z,13.59
2022-12-23T21:20:22.220Z,13.49
2022-12-23T21:22:48.885Z,13.51
2022-12-23T21:25:15.591Z,13.41
2022-12-23T21:27:42.252Z,13.41
2022-12-23T21:30:08.952Z,13.39
2022-12-23T21:32:35.638Z,13.41
2022-12-23T21:35:02.304Z,13.35
2022-12-23T21:37:28.988Z,13.38
2022-12-23T21:39:55.673Z,13.39
2022-12-23T21:42:22.328Z,13.41
2022-12-23T21:44:49.014Z,13.42
2022-12-23T21:47:15.754Z,13.41
2022-12-23T21:49:42.457Z,13.41
2022-12-23T21:52:09.134Z,13.43
2022-12-23T21:54:36.012Z,13.42
2022-12-23T21:57:02.704Z,13.39
2022-12-23T21:59:34.764Z,13.42
2022-12-23T22:02:02.377Z,13.41
2022-12-23T22:04:29.079Z,13.41
2022-12-23T22:06:55.753Z,13.43
2022-12-23T22:09:22.426Z,13.43
2022-12-23T22:11:49.130Z,13.45
2022-12-23T22:14:16.019Z,13.43
2022-12-23T22:16:42.763Z,13.41
2022-12-23T22:19:09.464Z,13.41
2022-12-23T22:21:36.147Z,13.39
2022-12-23T22:24:02.819Z,13.38
2022-12-23T22:26:29.707Z,13.39
2022-12-23T22:28:56.590Z,13.41
2022-12-23T22:31:23.297Z,13.41
2022-12-23T22:33:50.230Z,13.41
2022-12-23T22:36:16.915Z,13.39
2022-12-23T22:38:43.628Z,13.38
2022-12-23T22:41:10.314Z,13.38
2022-12-23T22:43:37.011Z,13.36
2022-12-23T22:46:04.127Z,13.36
2022-12-23T22:48:31.236Z,13.34
2022-12-23T22:50:57.919Z,13.35
2022-12-23T22:53:29.599Z,13.32
2022-12-23T22:55:56.809Z,13.32
2022-12-23T22:58:23.719Z,13.32
2022-12-23T23:00:50.391Z,13.32
2022-12-23T23:03:17.334Z,13.34
2022-12-23T23:05:44.060Z,13.31
2022-12-23T23:08:10.909Z,13.29
2022-12-23T23:10:37.609Z,13.31
2022-12-23T23:13:04.273Z,13.26
2022-12-23T23:15:30.934Z,13.23
2022-12-23T23:17:58.381Z,13.22
2022-12-23T23:20:25.073Z,13.23
2022-12-23T23:22:51.966Z,13.22
2022-12-23T23:25:18.642Z,13.22
2022-12-23T23:27:45.303Z,13.21
2022-12-23T23:30:12.197Z,13.21
2022-12-23T23:32:38.922Z,13.19
2022-12-23T23:35:10.671Z,13.18
2022-12-23T23:37:37.867Z,13.16
2022-12-23T23:40:04.602Z,13.14
2022-12-23T23:42:31.446Z,13.15
2022-12-23T23:44:58.133Z,13.14
2022-12-23T23:47:25.021Z,13.14
2022-12-23T23:49:51.692Z,13.12
2022-12-23T23:52:18.359Z,13.12
2022-12-23T23:54:45.016Z,13.11
2022-12-23T23:57:11.683Z,13.11
2022-12-23T23:59:38.340Z,13.08
